SABE/AEP METAR and TAF weather

Enter ICAO airport designator
Station Type Date Time Source
SABE METAR 2020/01/19 14:00 UTC NOAA

SABE 191400Z 03005KT 350V060 9999 FEW045 27/18 Q1013 NOSIG


Station Type Date Time Source
SABE Decoded METAR 2020/01/19 14:00 UTC NOAA

Aeroparque Bs. As. Aerodrome, Argentina (SABE) 34-34S 058-25W 6M
Jan 19, 2020 - 09:00 AM EST / 2020.01.19 1400 UTC
Wind: from the NNE (030 degrees) at 6 MPH (5 KT) (direction variable):0
Visibility: greater than 7 mile(s):0
Sky conditions: mostly clear
Temperature: 80 F (27 C)
Dew Point: 64 F (18 C)
Relative Humidity: 57%
Pressure (altimeter): 29.91 in. Hg (1013 hPa)
ob: SABE 191400Z 03005KT 350V060 9999 FEW045 27/18 Q1013 NOSIG
cycle: 14

Station Type Date Time Source
SABE TAF 2020/01/19 12:12 UTC NOAA

TAF SABE 191100Z 1912/2012 04010KT 9999 SCT040 TX31/1919Z TN25/2009Z
BECMG 1915/1918 06005KT
BECMG 1919/1922 10010KT
BECMG 2002/2005 04010KT 9999 SCT030

Example: see airport list